TimeEDT,TemperatureF,Dew PointF,Humidity,Sea Level PressureIn,VisibilityMPH,Wind Direction,Wind SpeedMPH,Gust SpeedMPH,PrecipitationIn,Events,Conditions,WindDirDegrees,DateUTC
12:06 AM,64.9,64.9,100,29.71,4.0,SSE,8.1,-,0.00,Rain,Light Rain,160,2013-09-13 04:06:00
12:54 AM,64.9,64.9,100,29.69,8.0,SW,4.6,-,0.00,,Overcast,230,2013-09-13 04:54:00
1:44 AM,66.0,64.9,96,29.70,10.0,WSW,5.8,-,N/A,,Overcast,240,2013-09-13 05:44:00
1:54 AM,66.0,64.9,96,29.68,10.0,SW,5.8,-,N/A,,Overcast,220,2013-09-13 05:54:00
2:43 AM,64.9,64.0,97,29.67,10.0,SW,4.6,-,N/A,,Overcast,230,2013-09-13 06:43:00
2:54 AM,64.9,64.0,97,29.65,10.0,SW,6.9,-,N/A,,Overcast,220,2013-09-13 06:54:00
3:27 AM,64.9,64.0,97,29.65,10.0,SW,5.8,-,N/A,,Mostly Cloudy,220,2013-09-13 07:27:00
3:54 AM,64.9,64.0,97,29.63,10.0,West,4.6,-,N/A,,Overcast,270,2013-09-13 07:54:00
4:10 AM,64.9,64.0,97,29.65,10.0,West,4.6,-,N/A,,Overcast,270,2013-09-13 08:10:00
4:42 AM,64.9,64.0,97,29.64,10.0,West,4.6,-,N/A,,Overcast,280,2013-09-13 08:42:00
4:54 AM,64.9,64.0,97,29.64,10.0,West,5.8,-,N/A,,Overcast,270,2013-09-13 08:54:00
5:10 AM,64.0,63.0,96,29.65,10.0,WSW,5.8,-,0.00,Rain,Light Rain,250,2013-09-13 09:10:00
5:54 AM,64.0,63.0,96,29.64,10.0,West,5.8,-,0.00,Rain,Light Rain,270,2013-09-13 09:54:00
6:54 AM,64.0,63.0,96,29.65,5.0,West,5.8,-,0.04,Rain,Rain,260,2013-09-13 10:54:00
7:54 AM,64.9,63.0,93,29.65,10.0,West,5.8,-,0.02,,Overcast,260,2013-09-13 11:54:00
8:54 AM,64.9,64.0,97,29.65,10.0,West,10.4,-,N/A,,Overcast,270,2013-09-13 12:54:00
9:54 AM,66.0,63.0,90,29.65,10.0,Calm,Calm,-,N/A,,Overcast,0,2013-09-13 13:54:00
10:12 AM,66.9,63.0,87,29.66,10.0,West,5.8,-,N/A,,Overcast,280,2013-09-13 14:12:00
10:45 AM,68.0,63.0,84,29.65,10.0,WNW,8.1,-,N/A,,Mostly Cloudy,300,2013-09-13 14:45:00
10:54 AM,69.1,63.0,81,29.65,10.0,West,6.9,-,N/A,,Mostly Cloudy,280,2013-09-13 14:54:00
11:54 AM,72.0,62.1,71,29.63,10.0,Variable,5.8,-,N/A,,Partly Cloudy,0,2013-09-13 15:54:00
12:54 PM,73.9,61.0,64,29.62,10.0,WNW,9.2,-,N/A,,Partly Cloudy,290,2013-09-13 16:54:00
1:54 PM,73.0,60.1,64,29.61,10.0,WNW,11.5,-,N/A,,Clear,290,2013-09-13 17:54:00
2:54 PM,72.0,61.0,68,29.62,10.0,WNW,11.5,-,N/A,,Scattered Clouds,300,2013-09-13 18:54:00
3:54 PM,70.0,61.0,73,29.63,10.0,NW,9.2,-,N/A,,Clear,320,2013-09-13 19:54:00
4:00 PM,70.0,60.1,71,29.64,10.0,NW,10.4,-,N/A,,Mostly Cloudy,320,2013-09-13 20:00:00
4:25 PM,64.9,60.1,84,29.66,10.0,NNW,11.5,23.0,0.00,Rain,Light Rain,330,2013-09-13 20:25:00
4:54 PM,66.0,59.0,78,29.65,10.0,NW,11.5,-,0.00,,Partly Cloudy,320,2013-09-13 20:54:00
5:54 PM,64.9,57.9,78,29.67,10.0,NW,10.4,-,N/A,,Partly Cloudy,320,2013-09-13 21:54:00
6:54 PM,62.1,55.9,80,29.71,10.0,NNW,11.5,-,N/A,,Overcast,330,2013-09-13 22:54:00
7:54 PM,60.1,55.9,86,29.74,10.0,NW,6.9,-,N/A,,Clear,310,2013-09-13 23:54:00
8:54 PM,59.0,55.0,87,29.76,10.0,NW,9.2,-,N/A,,Mostly Cloudy,320,2013-09-14 00:54:00
9:54 PM,57.9,55.0,90,29.77,10.0,NW,10.4,-,N/A,,Overcast,310,2013-09-14 01:54:00
10:51 PM,57.2,53.6,88,29.78,10.0,NW,9.2,-,N/A,,Overcast,320,2013-09-14 02:51:00
10:54 PM,57.0,53.1,87,29.78,10.0,NW,10.4,-,N/A,,Overcast,320,2013-09-14 02:54:00
11:22 PM,57.0,53.1,87,29.78,10.0,NNW,8.1,-,N/A,,Overcast,330,2013-09-14 03:22:00
11:30 PM,57.0,53.1,87,29.79,10.0,NW,5.8,-,N/A,,Overcast,320,2013-09-14 03:30:00
11:45 PM,57.0,53.1,87,29.79,10.0,NW,9.2,-,N/A,,Overcast,310,2013-09-14 03:45:00
11:54 PM,57.0,52.0,83,29.79,10.0,NNW,9.2,-,N/A,,Mostly Cloudy,330,2013-09-14 03:54:00